sensor_id;sensor_type;location;lat;lon;timestamp;P1;durP1;ratioP1;P2;durP2;ratioP2
44126;SDS011;29786;50.798;7.302;2023-08-30T00:00:39;11.1;;;8.7;;
44126;SDS011;29786;50.798;7.302;2023-08-30T00:01:38;9.6;;;8.2;;
44126;SDS011;29786;50.798;7.302;2023-08-30T00:02:38;8.4;;;6.8;;
44126;SDS011;29786;50.798;7.302;2023-08-30T00:03:38;7.7;;;6.6;;
44126;SDS011;29786;50.798;7.302;2023-08-30T00:04:39;8;;;6.8;;
44126;SDS011;29786;50.798;7.302;2023-08-30T00:05:39;7.4;;;6.7;;
44126;SDS011;29786;50.798;7.302;2023-08-30T00:06:38;8;;;5.9;;
44126;SDS011;29786;50.798;7.302;2023-08-30T00:07:38;8.2;;;7.1;;
44126;SDS011;29786;50.798;7.302;2023-08-30T00:08:38;7.5;;;6.7;;
44126;SDS011;29786;50.798;7.302;2023-08-30T00:09:38;7.6;;;6.5;;
44126;SDS011;29786;50.798;7.302;2023-08-30T00:10:38;11.6;;;8.9;;
44126;SDS011;29786;50.798;7.302;2023-08-30T00:11:38;8.6;;;7.8;;
44126;SDS011;29786;50.798;7.302;2023-08-30T00:12:38;11.1;;;8.2;;
44126;SDS011;29786;50.798;7.302;2023-08-30T00:13:38;8.8;;;7.7;;
44126;SDS011;29786;50.798;7.302;2023-08-30T00:14:39;9.3;;;7.7;;
44126;SDS011;29786;50.798;7.302;2023-08-30T00:15:38;9.6;;;8.6;;
44126;SDS011;29786;50.798;7.302;2023-08-30T00:16:38;9.8;;;8.9;;
44126;SDS011;29786;50.798;7.302;2023-08-30T00:17:38;10.3;;;8.9;;
44126;SDS011;29786;50.798;7.302;2023-08-30T00:18:38;14.1;;;10.7;;
44126;SDS011;29786;50.798;7.302;2023-08-30T00:19:38;11.7;;;10.2;;
44126;SDS011;29786;50.798;7.302;2023-08-30T00:20:38;13.6;;;11;;
44126;SDS011;29786;50.798;7.302;2023-08-30T00:21:38;13.5;;;11.6;;
44126;SDS011;29786;50.798;7.302;2023-08-30T00:22:38;13.5;;;12.1;;
44126;SDS011;29786;50.798;7.302;2023-08-30T00:23:38;14.8;;;12.6;;
44126;SDS011;29786;50.798;7.302;2023-08-30T00:24:38;14.6;;;13;;
44126;SDS011;29786;50.798;7.302;2023-08-30T00:25:38;16.9;;;13;;
44126;SDS011;29786;50.798;7.302;2023-08-30T00:26:39;16.6;;;12.8;;
44126;SDS011;29786;50.798;7.302;2023-08-30T00:27:38;16.3;;;12.2;;
44126;SDS011;29786;50.798;7.302;2023-08-30T00:28:38;15.2;;;13.3;;
44126;SDS011;29786;50.798;7.302;2023-08-30T00:29:39;16.3;;;13.4;;
44126;SDS011;29786;50.798;7.302;2023-08-30T00:30:38;17.2;;;13.6;;
44126;SDS011;29786;50.798;7.302;2023-08-30T00:31:38;14.8;;;13.2;;
44126;SDS011;29786;50.798;7.302;2023-08-30T00:32:38;17.6;;;14.1;;
44126;SDS011;29786;50.798;7.302;2023-08-30T00:33:38;16;;;13.4;;
44126;SDS011;29786;50.798;7.302;2023-08-30T00:34:38;17.2;;;13.5;;
44126;SDS011;29786;50.798;7.302;2023-08-30T00:35:38;15.1;;;13.5;;
44126;SDS011;29786;50.798;7.302;2023-08-30T00:36:38;17.1;;;13.9;;
44126;SDS011;29786;50.798;7.302;2023-08-30T00:37:38;17.3;;;14.2;;
44126;SDS011;29786;50.798;7.302;2023-08-30T00:38:38;16;;;14.3;;
44126;SDS011;29786;50.798;7.302;2023-08-30T00:39:39;16.7;;;14.9;;
44126;SDS011;29786;50.798;7.302;2023-08-30T00:40:39;17;;;15.2;;
44126;SDS011;29786;50.798;7.302;2023-08-30T00:41:39;18.4;;;15.3;;
44126;SDS011;29786;50.798;7.302;2023-08-30T00:42:38;20.9;;;16.6;;
44126;SDS011;29786;50.798;7.302;2023-08-30T00:43:38;17.2;;;15.5;;
44126;SDS011;29786;50.798;7.302;2023-08-30T00:44:39;18.4;;;15.6;;
44126;SDS011;29786;50.798;7.302;2023-08-30T00:45:38;20.5;;;16.1;;
44126;SDS011;29786;50.798;7.302;2023-08-30T00:46:38;18.1;;;16.3;;
44126;SDS011;29786;50.798;7.302;2023-08-30T00:47:38;20.1;;;16;;
44126;SDS011;29786;50.798;7.302;2023-08-30T00:48:38;19.8;;;16;;
44126;SDS011;29786;50.798;7.302;2023-08-30T00:49:39;18.1;;;15.8;;
44126;SDS011;29786;50.798;7.302;2023-08-30T00:50:39;19.8;;;17.7;;
44126;SDS011;29786;50.798;7.302;2023-08-30T00:51:38;18.3;;;16.3;;
44126;SDS011;29786;50.798;7.302;2023-08-30T00:52:38;18.8;;;15.8;;
44126;SDS011;29786;50.798;7.302;2023-08-30T00:53:38;20.1;;;16.6;;
44126;SDS011;29786;50.798;7.302;2023-08-30T00:54:39;19.5;;;16.9;;
44126;SDS011;29786;50.798;7.302;2023-08-30T00:55:38;20.1;;;17.1;;
44126;SDS011;29786;50.798;7.302;2023-08-30T00:56:38;20.2;;;17.3;;
44126;SDS011;29786;50.798;7.302;2023-08-30T00:57:38;19.5;;;16.6;;
44126;SDS011;29786;50.798;7.302;2023-08-30T00:58:38;19.2;;;17.1;;
44126;SDS011;29786;50.798;7.302;2023-08-30T00:59:38;20.3;;;16.4;;
44126;SDS011;29786;50.798;7.302;2023-08-30T01:00:39;19.4;;;17.1;;
44126;SDS011;29786;50.798;7.302;2023-08-30T01:01:38;21.1;;;17.4;;
44126;SDS011;29786;50.798;7.302;2023-08-30T01:02:38;19.4;;;16.1;;
44126;SDS011;29786;50.798;7.302;2023-08-30T01:03:38;20.2;;;15.2;;
44126;SDS011;29786;50.798;7.302;2023-08-30T01:04:39;18.6;;;16.7;;
44126;SDS011;29786;50.798;7.302;2023-08-30T01:05:38;18;;;16.1;;
44126;SDS011;29786;50.798;7.302;2023-08-30T01:06:38;18;;;16.1;;
44126;SDS011;29786;50.798;7.302;2023-08-30T01:07:38;18.4;;;16.5;;
44126;SDS011;29786;50.798;7.302;2023-08-30T01:08:38;17.5;;;15.6;;
44126;SDS011;29786;50.798;7.302;2023-08-30T01:09:39;19;;;15.8;;
44126;SDS011;29786;50.798;7.302;2023-08-30T01:11:40;18.7;;;15.3;;
44126;SDS011;29786;50.798;7.302;2023-08-30T01:11:46;18.5;;;16.5;;
44126;SDS011;29786;50.798;7.302;2023-08-30T01:12:40;17;;;15.3;;
44126;SDS011;29786;50.798;7.302;2023-08-30T01:13:43;16.9;;;15.1;;
44126;SDS011;29786;50.798;7.302;2023-08-30T01:14:51;17.3;;;15.5;;
44126;SDS011;29786;50.798;7.302;2023-08-30T01:15:38;17.4;;;15.6;;
44126;SDS011;29786;50.798;7.302;2023-08-30T01:16:38;17.8;;;15.7;;
44126;SDS011;29786;50.798;7.302;2023-08-30T01:17:39;19;;;16.4;;
44126;SDS011;29786;50.798;7.302;2023-08-30T01:18:38;17.6;;;15.7;;
44126;SDS011;29786;50.798;7.302;2023-08-30T01:19:41;20.7;;;16.3;;
44126;SDS011;29786;50.798;7.302;2023-08-30T01:20:38;18.2;;;16.3;;
44126;SDS011;29786;50.798;7.302;2023-08-30T01:21:43;18.3;;;15;;
44126;SDS011;29786;50.798;7.302;2023-08-30T01:22:46;14.6;;;13;;
44126;SDS011;29786;50.798;7.302;2023-08-30T01:23:40;14.3;;;12.8;;
44126;SDS011;29786;50.798;7.302;2023-08-30T01:24:41;13.4;;;12.2;;
44126;SDS011;29786;50.798;7.302;2023-08-30T01:25:47;13.3;;;11.7;;
44126;SDS011;29786;50.798;7.302;2023-08-30T01:27:09;13.5;;;12.1;;
44126;SDS011;29786;50.798;7.302;2023-08-30T01:27:38;14.7;;;13.2;;
44126;SDS011;29786;50.798;7.302;2023-08-30T01:28:38;11.9;;;10.1;;
44126;SDS011;29786;50.798;7.302;2023-08-30T01:29:40;17.8;;;13.9;;
44126;SDS011;29786;50.798;7.302;2023-08-30T01:30:39;12.3;;;11;;
44126;SDS011;29786;50.798;7.302;2023-08-30T01:31:38;11.7;;;10.5;;
44126;SDS011;29786;50.798;7.302;2023-08-30T01:32:38;12.5;;;11.3;;
44126;SDS011;29786;50.798;7.302;2023-08-30T01:33:38;14.4;;;12.9;;
44126;SDS011;29786;50.798;7.302;2023-08-30T01:34:39;14.4;;;12.2;;
44126;SDS011;29786;50.798;7.302;2023-08-30T01:35:38;13.3;;;12;;
44126;SDS011;29786;50.798;7.302;2023-08-30T01:36:38;14.5;;;12.3;;
44126;SDS011;29786;50.798;7.302;2023-08-30T01:37:38;12.8;;;11.4;;
44126;SDS011;29786;50.798;7.302;2023-08-30T01:38:38;11.5;;;10.3;;
44126;SDS011;29786;50.798;7.302;2023-08-30T01:39:38;13.1;;;11.7;;
44126;SDS011;29786;50.798;7.302;2023-08-30T01:40:39;14;;;12.5;;
44126;SDS011;29786;50.798;7.302;2023-08-30T01:41:38;12.6;;;11.3;;
44126;SDS011;29786;50.798;7.302;2023-08-30T01:42:38;10.2;;;8.8;;
44126;SDS011;29786;50.798;7.302;2023-08-30T01:43:38;13.2;;;10.5;;
44126;SDS011;29786;50.798;7.302;2023-08-30T01:44:38;11.8;;;10.4;;
44126;SDS011;29786;50.798;7.302;2023-08-30T01:45:39;10;;;8.9;;
44126;SDS011;29786;50.798;7.302;2023-08-30T01:46:38;13.1;;;11.6;;
44126;SDS011;29786;50.798;7.302;2023-08-30T01:47:38;12.9;;;11.2;;
44126;SDS011;29786;50.798;7.302;2023-08-30T01:48:38;11.4;;;9.4;;
44126;SDS011;29786;50.798;7.302;2023-08-30T01:49:38;11.2;;;10;;
44126;SDS011;29786;50.798;7.302;2023-08-30T01:50:39;10.7;;;9.5;;
44126;SDS011;29786;50.798;7.302;2023-08-30T01:51:38;11.2;;;10;;
44126;SDS011;29786;50.798;7.302;2023-08-30T01:52:38;11.8;;;10.4;;
44126;SDS011;29786;50.798;7.302;2023-08-30T01:53:38;11.6;;;10.4;;
44126;SDS011;29786;50.798;7.302;2023-08-30T01:54:38;11.6;;;10.5;;
44126;SDS011;29786;50.798;7.302;2023-08-30T01:55:38;13.5;;;10.4;;
44126;SDS011;29786;50.798;7.302;2023-08-30T01:56:38;10.6;;;9.5;;
44126;SDS011;29786;50.798;7.302;2023-08-30T01:57:38;11;;;9.1;;
44126;SDS011;29786;50.798;7.302;2023-08-30T01:58:38;10.1;;;9;;
44126;SDS011;29786;50.798;7.302;2023-08-30T01:59:38;10.2;;;8.9;;
44126;SDS011;29786;50.798;7.302;2023-08-30T02:00:38;10;;;8.2;;
44126;SDS011;29786;50.798;7.302;2023-08-30T02:01:38;9.9;;;8.9;;
44126;SDS011;29786;50.798;7.302;2023-08-30T02:02:38;12.1;;;10.9;;
44126;SDS011;29786;50.798;7.302;2023-08-30T02:03:38;12.7;;;10.1;;
44126;SDS011;29786;50.798;7.302;2023-08-30T02:04:38;12;;;10.5;;
44126;SDS011;29786;50.798;7.302;2023-08-30T02:05:46;11.8;;;10.1;;
44126;SDS011;29786;50.798;7.302;2023-08-30T02:07:42;10.5;;;9.4;;
44126;SDS011;29786;50.798;7.302;2023-08-30T02:08:41;9.9;;;8.9;;
44126;SDS011;29786;50.798;7.302;2023-08-30T02:09:39;11.4;;;10.2;;
44126;SDS011;29786;50.798;7.302;2023-08-30T02:10:40;10.7;;;9.6;;
44126;SDS011;29786;50.798;7.302;2023-08-30T02:11:38;12.3;;;10.9;;
44126;SDS011;29786;50.798;7.302;2023-08-30T02:12:42;11.2;;;9.7;;
44126;SDS011;29786;50.798;7.302;2023-08-30T02:13:38;15.1;;;12.2;;
44126;SDS011;29786;50.798;7.302;2023-08-30T02:14:39;14.8;;;11.8;;
44126;SDS011;29786;50.798;7.302;2023-08-30T02:15:38;12.1;;;10.9;;
44126;SDS011;29786;50.798;7.302;2023-08-30T02:16:38;13.4;;;10.2;;
44126;SDS011;29786;50.798;7.302;2023-08-30T02:17:38;10.7;;;9.6;;
44126;SDS011;29786;50.798;7.302;2023-08-30T02:18:38;10.6;;;9.5;;
44126;SDS011;29786;50.798;7.302;2023-08-30T02:19:39;11.5;;;9.7;;
44126;SDS011;29786;50.798;7.302;2023-08-30T02:20:38;11.2;;;10;;
44126;SDS011;29786;50.798;7.302;2023-08-30T02:21:39;13.5;;;11;;
44126;SDS011;29786;50.798;7.302;2023-08-30T02:22:38;13.3;;;11.6;;
44126;SDS011;29786;50.798;7.302;2023-08-30T02:23:38;13.7;;;12.1;;
44126;SDS011;29786;50.798;7.302;2023-08-30T02:24:39;10.8;;;9.6;;
44126;SDS011;29786;50.798;7.302;2023-08-30T02:25:38;10.8;;;9.5;;
44126;SDS011;29786;50.798;7.302;2023-08-30T02:26:38;11.3;;;9.7;;
44126;SDS011;29786;50.798;7.302;2023-08-30T02:27:38;10.5;;;9.4;;
44126;SDS011;29786;50.798;7.302;2023-08-30T02:28:38;12.1;;;10.8;;
44126;SDS011;29786;50.798;7.302;2023-08-30T02:29:39;12.5;;;10.7;;
44126;SDS011;29786;50.798;7.302;2023-08-30T02:30:38;12.5;;;10.2;;
44126;SDS011;29786;50.798;7.302;2023-08-30T02:31:38;12.9;;;11.4;;
44126;SDS011;29786;50.798;7.302;2023-08-30T02:32:38;12.4;;;10.7;;
44126;SDS011;29786;50.798;7.302;2023-08-30T02:33:38;13.1;;;11.4;;
44126;SDS011;29786;50.798;7.302;2023-08-30T02:34:38;12.5;;;11.2;;
44126;SDS011;29786;50.798;7.302;2023-08-30T02:35:38;12.4;;;10.8;;
44126;SDS011;29786;50.798;7.302;2023-08-30T02:36:38;11.3;;;10;;
44126;SDS011;29786;50.798;7.302;2023-08-30T02:37:38;13.4;;;11;;
44126;SDS011;29786;50.798;7.302;2023-08-30T02:38:38;13.1;;;11.7;;
44126;SDS011;29786;50.798;7.302;2023-08-30T02:39:39;14.9;;;12.5;;
44126;SDS011;29786;50.798;7.302;2023-08-30T02:40:38;12.4;;;10.8;;
44126;SDS011;29786;50.798;7.302;2023-08-30T02:41:38;14.2;;;12.3;;
44126;SDS011;29786;50.798;7.302;2023-08-30T02:42:38;13.6;;;10.3;;
44126;SDS011;29786;50.798;7.302;2023-08-30T02:43:38;13.3;;;11;;
44126;SDS011;29786;50.798;7.302;2023-08-30T02:44:38;12.3;;;10.9;;
44126;SDS011;29786;50.798;7.302;2023-08-30T02:45:38;12.7;;;10.9;;
44126;SDS011;29786;50.798;7.302;2023-08-30T02:46:38;13.1;;;10.9;;
44126;SDS011;29786;50.798;7.302;2023-08-30T02:47:38;14.5;;;11.5;;
44126;SDS011;29786;50.798;7.302;2023-08-30T02:48:38;13.2;;;11.9;;
44126;SDS011;29786;50.798;7.302;2023-08-30T02:49:39;16.7;;;13.5;;
44126;SDS011;29786;50.798;7.302;2023-08-30T02:50:38;13.9;;;12.3;;
44126;SDS011;29786;50.798;7.302;2023-08-30T02:51:38;16.2;;;13.8;;
44126;SDS011;29786;50.798;7.302;2023-08-30T02:52:38;14;;;12.5;;
44126;SDS011;29786;50.798;7.302;2023-08-30T02:53:38;14.1;;;12.6;;
44126;SDS011;29786;50.798;7.302;2023-08-30T02:54:39;14;;;12.4;;
44126;SDS011;29786;50.798;7.302;2023-08-30T02:55:38;13.2;;;11.8;;
44126;SDS011;29786;50.798;7.302;2023-08-30T02:56:40;14.4;;;12.9;;
44126;SDS011;29786;50.798;7.302;2023-08-30T02:57:38;14.6;;;13;;
44126;SDS011;29786;50.798;7.302;2023-08-30T02:58:38;15.8;;;12.7;;
44126;SDS011;29786;50.798;7.302;2023-08-30T02:59:38;13.5;;;10.4;;
44126;SDS011;29786;50.798;7.302;2023-08-30T03:00:38;13;;;11.5;;
44126;SDS011;29786;50.798;7.302;2023-08-30T03:01:38;15.4;;;13;;
44126;SDS011;29786;50.798;7.302;2023-08-30T03:02:38;13.4;;;11.7;;
44126;SDS011;29786;50.798;7.302;2023-08-30T03:03:38;13.4;;;11.4;;
44126;SDS011;29786;50.798;7.302;2023-08-30T03:04:38;12.7;;;11.3;;
44126;SDS011;29786;50.798;7.302;2023-08-30T03:05:38;15.6;;;13.8;;
44126;SDS011;29786;50.798;7.302;2023-08-30T03:06:38;13.6;;;11.8;;
44126;SDS011;29786;50.798;7.302;2023-08-30T03:07:38;14.1;;;12.6;;
44126;SDS011;29786;50.798;7.302;2023-08-30T03:08:38;14.1;;;12.6;;
44126;SDS011;29786;50.798;7.302;2023-08-30T03:09:39;12.5;;;11.2;;
44126;SDS011;29786;50.798;7.302;2023-08-30T03:10:38;14.6;;;13;;
44126;SDS011;29786;50.798;7.302;2023-08-30T03:11:38;13.2;;;11.9;;
44126;SDS011;29786;50.798;7.302;2023-08-30T03:12:38;14.6;;;12.7;;
44126;SDS011;29786;50.798;7.302;2023-08-30T03:13:38;11.1;;;9.1;;
44126;SDS011;29786;50.798;7.302;2023-08-30T03:14:38;11;;;8.9;;
44126;SDS011;29786;50.798;7.302;2023-08-30T03:15:38;14.2;;;12.2;;
44126;SDS011;29786;50.798;7.302;2023-08-30T03:16:38;11.4;;;10.3;;
44126;SDS011;29786;50.798;7.302;2023-08-30T03:17:38;11.1;;;9.9;;
44126;SDS011;29786;50.798;7.302;2023-08-30T03:18:39;12.8;;;11.5;;
44126;SDS011;29786;50.798;7.302;2023-08-30T03:19:38;14.1;;;12.2;;
44126;SDS011;29786;50.798;7.302;2023-08-30T03:20:38;15.1;;;13.1;;
44126;SDS011;29786;50.798;7.302;2023-08-30T03:21:40;14.1;;;11.6;;
44126;SDS011;29786;50.798;7.302;2023-08-30T03:22:38;13.4;;;12;;
44126;SDS011;29786;50.798;7.302;2023-08-30T03:23:39;14.8;;;12.4;;
44126;SDS011;29786;50.798;7.302;2023-08-30T03:24:39;13.3;;;11.9;;
44126;SDS011;29786;50.798;7.302;2023-08-30T03:25:38;13.9;;;12.4;;
44126;SDS011;29786;50.798;7.302;2023-08-30T03:26:38;14.9;;;12.1;;
44126;SDS011;29786;50.798;7.302;2023-08-30T03:27:38;12.3;;;11;;
44126;SDS011;29786;50.798;7.302;2023-08-30T03:28:39;13.8;;;11.2;;
44126;SDS011;29786;50.798;7.302;2023-08-30T03:29:39;11.7;;;10.5;;
44126;SDS011;29786;50.798;7.302;2023-08-30T03:30:38;14.7;;;12.7;;
44126;SDS011;29786;50.798;7.302;2023-08-30T03:31:38;14.4;;;12.9;;
44126;SDS011;29786;50.798;7.302;2023-08-30T03:32:38;13.4;;;11.4;;
44126;SDS011;29786;50.798;7.302;2023-08-30T03:33:39;13.4;;;11;;
44126;SDS011;29786;50.798;7.302;2023-08-30T03:34:38;13.9;;;10.8;;
44126;SDS011;29786;50.798;7.302;2023-08-30T03:35:38;15.6;;;11.9;;
44126;SDS011;29786;50.798;7.302;2023-08-30T03:36:40;13.1;;;11.7;;
44126;SDS011;29786;50.798;7.302;2023-08-30T03:37:38;11.3;;;9.6;;
44126;SDS011;29786;50.798;7.302;2023-08-30T03:38:38;14.6;;;12.2;;
44126;SDS011;29786;50.798;7.302;2023-08-30T03:39:39;12.8;;;11.5;;
44126;SDS011;29786;50.798;7.302;2023-08-30T03:40:38;17.5;;;11.7;;
44126;SDS011;29786;50.798;7.302;2023-08-30T03:41:38;10.6;;;9.5;;
44126;SDS011;29786;50.798;7.302;2023-08-30T03:42:38;12.4;;;11.1;;
44126;SDS011;29786;50.798;7.302;2023-08-30T03:43:38;12.2;;;10.4;;
44126;SDS011;29786;50.798;7.302;2023-08-30T03:44:38;12.3;;;10.6;;
44126;SDS011;29786;50.798;7.302;2023-08-30T03:45:38;13.4;;;12;;
44126;SDS011;29786;50.798;7.302;2023-08-30T03:46:38;13.5;;;12.1;;
44126;SDS011;29786;50.798;7.302;2023-08-30T03:47:38;14;;;11.8;;
44126;SDS011;29786;50.798;7.302;2023-08-30T03:48:38;14.3;;;12.8;;
44126;SDS011;29786;50.798;7.302;2023-08-30T03:49:38;14;;;11.2;;
44126;SDS011;29786;50.798;7.302;2023-08-30T03:50:38;13.8;;;12.2;;
44126;SDS011;29786;50.798;7.302;2023-08-30T03:51:38;13.8;;;12.4;;
44126;SDS011;29786;50.798;7.302;2023-08-30T03:52:38;13.4;;;12;;
44126;SDS011;29786;50.798;7.302;2023-08-30T03:53:38;14.2;;;12.3;;
44126;SDS011;29786;50.798;7.302;2023-08-30T03:54:39;12.6;;;11;;
44126;SDS011;29786;50.798;7.302;2023-08-30T03:55:38;13.3;;;11.7;;
44126;SDS011;29786;50.798;7.302;2023-08-30T03:56:38;12.4;;;10.8;;
44126;SDS011;29786;50.798;7.302;2023-08-30T03:57:38;13.6;;;11.1;;
44126;SDS011;29786;50.798;7.302;2023-08-30T03:58:38;12.7;;;10.7;;
44126;SDS011;29786;50.798;7.302;2023-08-30T03:59:38;12.8;;;11.2;;
44126;SDS011;29786;50.798;7.302;2023-08-30T04:00:38;12.9;;;11.4;;
44126;SDS011;29786;50.798;7.302;2023-08-30T04:01:38;12.3;;;11;;
44126;SDS011;29786;50.798;7.302;2023-08-30T04:02:38;11.8;;;9.7;;
44126;SDS011;29786;50.798;7.302;2023-08-30T04:03:38;17;;;11.8;;
44126;SDS011;29786;50.798;7.302;2023-08-30T04:04:38;12.3;;;10.8;;
44126;SDS011;29786;50.798;7.302;2023-08-30T04:05:38;13.4;;;11.3;;
44126;SDS011;29786;50.798;7.302;2023-08-30T04:06:39;13.1;;;11.2;;
44126;SDS011;29786;50.798;7.302;2023-08-30T04:07:39;12.7;;;11.4;;
44126;SDS011;29786;50.798;7.302;2023-08-30T04:08:38;11.3;;;10.1;;
44126;SDS011;29786;50.798;7.302;2023-08-30T04:09:39;13.9;;;11.2;;
44126;SDS011;29786;50.798;7.302;2023-08-30T04:10:40;14.4;;;12.1;;
44126;SDS011;29786;50.798;7.302;2023-08-30T04:11:38;14.2;;;11.2;;
44126;SDS011;29786;50.798;7.302;2023-08-30T04:12:38;13.5;;;12.1;;
44126;SDS011;29786;50.798;7.302;2023-08-30T04:13:38;13.5;;;11.6;;
44126;SDS011;29786;50.798;7.302;2023-08-30T04:14:38;12.3;;;11.1;;
44126;SDS011;29786;50.798;7.302;2023-08-30T04:15:38;13.8;;;11.4;;
44126;SDS011;29786;50.798;7.302;2023-08-30T04:16:38;13.3;;;11.5;;
44126;SDS011;29786;50.798;7.302;2023-08-30T04:17:38;15;;;12.8;;
44126;SDS011;29786;50.798;7.302;2023-08-30T04:18:38;13;;;11.1;;
44126;SDS011;29786;50.798;7.302;2023-08-30T04:19:38;12.7;;;11;;
44126;SDS011;29786;50.798;7.302;2023-08-30T04:20:42;12.3;;;11;;
44126;SDS011;29786;50.798;7.302;2023-08-30T04:21:38;14.2;;;12.4;;
44126;SDS011;29786;50.798;7.302;2023-08-30T04:22:38;13.2;;;10.7;;
44126;SDS011;29786;50.798;7.302;2023-08-30T04:23:38;14.6;;;12.8;;
44126;SDS011;29786;50.798;7.302;2023-08-30T04:24:38;12.8;;;11.5;;
44126;SDS011;29786;50.798;7.302;2023-08-30T04:25:38;14.3;;;11.7;;
44126;SDS011;29786;50.798;7.302;2023-08-30T04:26:38;14.5;;;11.8;;
44126;SDS011;29786;50.798;7.302;2023-08-30T04:27:38;15;;;12.9;;
44126;SDS011;29786;50.798;7.302;2023-08-30T04:28:38;15.2;;;12.5;;
44126;SDS011;29786;50.798;7.302;2023-08-30T04:29:38;14.3;;;12.1;;
44126;SDS011;29786;50.798;7.302;2023-08-30T04:30:38;13.7;;;12.3;;
44126;SDS011;29786;50.798;7.302;2023-08-30T04:31:38;15;;;12;;
44126;SDS011;29786;50.798;7.302;2023-08-30T04:32:38;13.2;;;11.8;;
44126;SDS011;29786;50.798;7.302;2023-08-30T04:33:39;15.4;;;12;;
44126;SDS011;29786;50.798;7.302;2023-08-30T04:34:38;14;;;12.5;;
44126;SDS011;29786;50.798;7.302;2023-08-30T04:35:38;14.5;;;12.9;;
44126;SDS011;29786;50.798;7.302;2023-08-30T04:36:38;14.7;;;13.2;;
44126;SDS011;29786;50.798;7.302;2023-08-30T04:37:38;14;;;12.5;;
44126;SDS011;29786;50.798;7.302;2023-08-30T04:38:38;15.2;;;13.5;;
44126;SDS011;29786;50.798;7.302;2023-08-30T04:39:39;14.6;;;13.1;;
44126;SDS011;29786;50.798;7.302;2023-08-30T04:40:38;14.7;;;12.8;;
44126;SDS011;29786;50.798;7.302;2023-08-30T04:41:38;18;;;13.7;;
44126;SDS011;29786;50.798;7.302;2023-08-30T04:42:39;16.6;;;12.9;;
44126;SDS011;29786;50.798;7.302;2023-08-30T04:43:38;16.6;;;13.1;;
44126;SDS011;29786;50.798;7.302;2023-08-30T04:44:38;13.8;;;11.7;;
44126;SDS011;29786;50.798;7.302;2023-08-30T04:45:38;15.3;;;12.4;;
44126;SDS011;29786;50.798;7.302;2023-08-30T04:46:38;17;;;12.8;;
44126;SDS011;29786;50.798;7.302;2023-08-30T04:47:38;15.3;;;13.3;;
44126;SDS011;29786;50.798;7.302;2023-08-30T04:48:38;14.5;;;12.3;;
44126;SDS011;29786;50.798;7.302;2023-08-30T04:49:38;13.4;;;11.4;;
44126;SDS011;29786;50.798;7.302;2023-08-30T04:50:38;13.8;;;12.3;;
44126;SDS011;29786;50.798;7.302;2023-08-30T04:51:38;13.3;;;11.8;;
44126;SDS011;29786;50.798;7.302;2023-08-30T04:52:38;12.2;;;10.9;;
44126;SDS011;29786;50.798;7.302;2023-08-30T04:53:38;17.1;;;13.6;;
44126;SDS011;29786;50.798;7.302;2023-08-30T04:54:38;13.3;;;11.9;;
44126;SDS011;29786;50.798;7.302;2023-08-30T04:55:38;12.7;;;11.4;;
44126;SDS011;29786;50.798;7.302;2023-08-30T04:56:38;13.4;;;11.6;;
44126;SDS011;29786;50.798;7.302;2023-08-30T04:57:39;13.4;;;11.3;;
44126;SDS011;29786;50.798;7.302;2023-08-30T04:58:38;13.3;;;11.9;;
44126;SDS011;29786;50.798;7.302;2023-08-30T04:59:39;13.2;;;11.5;;
44126;SDS011;29786;50.798;7.302;2023-08-30T05:00:38;12;;;10.8;;
44126;SDS011;29786;50.798;7.302;2023-08-30T05:01:38;12.9;;;10.6;;
44126;SDS011;29786;50.798;7.302;2023-08-30T05:02:38;12.4;;;10.5;;
44126;SDS011;29786;50.798;7.302;2023-08-30T05:03:39;12.9;;;11.5;;
44126;SDS011;29786;50.798;7.302;2023-08-30T05:04:38;14.7;;;10.5;;
44126;SDS011;29786;50.798;7.302;2023-08-30T05:05:38;11.3;;;10.1;;
44126;SDS011;29786;50.798;7.302;2023-08-30T05:06:38;10.5;;;9.3;;
44126;SDS011;29786;50.798;7.302;2023-08-30T05:07:38;12;;;10.7;;
44126;SDS011;29786;50.798;7.302;2023-08-30T05:08:38;13.1;;;9.6;;
44126;SDS011;29786;50.798;7.302;2023-08-30T05:09:38;12.7;;;9.7;;
44126;SDS011;29786;50.798;7.302;2023-08-30T05:10:39;11;;;9.2;;
44126;SDS011;29786;50.798;7.302;2023-08-30T05:11:38;11.8;;;9.6;;
44126;SDS011;29786;50.798;7.302;2023-08-30T05:12:38;11;;;9.9;;
44126;SDS011;29786;50.798;7.302;2023-08-30T05:13:38;10.8;;;9.2;;
44126;SDS011;29786;50.798;7.302;2023-08-30T05:14:39;11.2;;;9.9;;
44126;SDS011;29786;50.798;7.302;2023-08-30T05:15:38;12.2;;;9.8;;
44126;SDS011;29786;50.798;7.302;2023-08-30T05:16:38;12.1;;;9.4;;
44126;SDS011;29786;50.798;7.302;2023-08-30T05:17:38;10.7;;;9.1;;
44126;SDS011;29786;50.798;7.302;2023-08-30T05:18:38;11.8;;;10.4;;
44126;SDS011;29786;50.798;7.302;2023-08-30T05:19:38;10.3;;;9.2;;
44126;SDS011;29786;50.798;7.302;2023-08-30T05:20:38;11.2;;;9.4;;
44126;SDS011;29786;50.798;7.302;2023-08-30T05:21:38;11.2;;;9.8;;
44126;SDS011;29786;50.798;7.302;2023-08-30T05:22:38;12.5;;;10.3;;
44126;SDS011;29786;50.798;7.302;2023-08-30T05:23:38;11.5;;;9.8;;
44126;SDS011;29786;50.798;7.302;2023-08-30T05:24:38;11.2;;;9.8;;
44126;SDS011;29786;50.798;7.302;2023-08-30T05:25:38;13.2;;;9.5;;
44126;SDS011;29786;50.798;7.302;2023-08-30T05:26:38;10.7;;;9.4;;
44126;SDS011;29786;50.798;7.302;2023-08-30T05:27:38;10.9;;;9.5;;
44126;SDS011;29786;50.798;7.302;2023-08-30T05:28:38;11.2;;;10.1;;
44126;SDS011;29786;50.798;7.302;2023-08-30T05:29:38;10.7;;;9.6;;
44126;SDS011;29786;50.798;7.302;2023-08-30T05:30:41;12;;;9.7;;
44126;SDS011;29786;50.798;7.302;2023-08-30T05:31:38;11.6;;;10.4;;
44126;SDS011;29786;50.798;7.302;2023-08-30T05:32:38;12.4;;;10.1;;
44126;SDS011;29786;50.798;7.302;2023-08-30T05:33:38;12.3;;;11;;
44126;SDS011;29786;50.798;7.302;2023-08-30T05:34:38;10.7;;;9.6;;
44126;SDS011;29786;50.798;7.302;2023-08-30T05:35:38;11.5;;;10.1;;
44126;SDS011;29786;50.798;7.302;2023-08-30T05:36:38;11.1;;;9.9;;
44126;SDS011;29786;50.798;7.302;2023-08-30T05:37:38;12.4;;;10.4;;
44126;SDS011;29786;50.798;7.302;2023-08-30T05:38:38;11.5;;;9.9;;
44126;SDS011;29786;50.798;7.302;2023-08-30T05:39:39;11.7;;;10.5;;
44126;SDS011;29786;50.798;7.302;2023-08-30T05:40:38;12.6;;;10.9;;
44126;SDS011;29786;50.798;7.302;2023-08-30T05:41:38;12.8;;;10.6;;
44126;SDS011;29786;50.798;7.302;2023-08-30T05:42:38;13.3;;;10.5;;
44126;SDS011;29786;50.798;7.302;2023-08-30T05:43:38;12.1;;;10;;
44126;SDS011;29786;50.798;7.302;2023-08-30T05:44:38;12.1;;;10.8;;
44126;SDS011;29786;50.798;7.302;2023-08-30T05:45:38;13.2;;;11.2;;
44126;SDS011;29786;50.798;7.302;2023-08-30T05:46:38;12.4;;;11.1;;
44126;SDS011;29786;50.798;7.302;2023-08-30T05:47:38;13;;;10.3;;
44126;SDS011;29786;50.798;7.302;2023-08-30T05:48:38;12.5;;;10.7;;
44126;SDS011;29786;50.798;7.302;2023-08-30T05:49:38;13.4;;;11;;
44126;SDS011;29786;50.798;7.302;2023-08-30T05:50:38;12.4;;;10.5;;
44126;SDS011;29786;50.798;7.302;2023-08-30T05:51:38;13.3;;;11.6;;
44126;SDS011;29786;50.798;7.302;2023-08-30T05:52:38;12.1;;;10.8;;
44126;SDS011;29786;50.798;7.302;2023-08-30T05:53:38;12.4;;;11.1;;
44126;SDS011;29786;50.798;7.302;2023-08-30T05:54:38;14.7;;;11.4;;
44126;SDS011;29786;50.798;7.302;2023-08-30T05:55:38;16.4;;;12.1;;
44126;SDS011;29786;50.798;7.302;2023-08-30T05:56:38;11.1;;;10;;
44126;SDS011;29786;50.798;7.302;2023-08-30T05:57:38;13.7;;;11.6;;
44126;SDS011;29786;50.798;7.302;2023-08-30T05:58:39;13.8;;;10.4;;
44126;SDS011;29786;50.798;7.302;2023-08-30T05:59:38;13.2;;;11;;
44126;SDS011;29786;50.798;7.302;2023-08-30T06:00:38;12.7;;;11.3;;
44126;SDS011;29786;50.798;7.302;2023-08-30T06:01:38;11.3;;;10.1;;
44126;SDS011;29786;50.798;7.302;2023-08-30T06:02:39;12.7;;;11.4;;
44126;SDS011;29786;50.798;7.302;2023-08-30T06:03:38;13.3;;;11.1;;
44126;SDS011;29786;50.798;7.302;2023-08-30T06:04:38;13.7;;;12.1;;
44126;SDS011;29786;50.798;7.302;2023-08-30T06:05:38;12.8;;;11.1;;